sensor_id;sensor_type;location;lat;lon;timestamp;temperature;humidity
69082;DHT22;56184;51.986;5.760;2022-12-29T00:00:04;11.10;99.90
69082;DHT22;56184;51.986;5.760;2022-12-29T00:03:11;11.10;99.90
69082;DHT22;56184;51.986;5.760;2022-12-29T00:05:37;11.20;99.90
69082;DHT22;56184;51.986;5.760;2022-12-29T00:08:02;11.20;99.90
69082;DHT22;56184;51.986;5.760;2022-12-29T00:10:31;11.20;99.90
69082;DHT22;56184;51.986;5.760;2022-12-29T00:13:09;11.10;99.90
69082;DHT22;56184;51.986;5.760;2022-12-29T00:15:56;11.20;99.90
69082;DHT22;56184;51.986;5.760;2022-12-29T00:18:21;11.20;99.90
69082;DHT22;56184;51.986;5.760;2022-12-29T00:20:47;11.30;99.90
69082;DHT22;56184;51.986;5.760;2022-12-29T00:23:31;11.20;99.90
69082;DHT22;56184;51.986;5.760;2022-12-29T00:26:16;11.20;99.90
69082;DHT22;56184;51.986;5.760;2022-12-29T00:29:00;11.10;99.90
69082;DHT22;56184;51.986;5.760;2022-12-29T00:31:45;11.20;99.90
69082;DHT22;56184;51.986;5.760;2022-12-29T00:34:29;11.20;99.90
69082;DHT22;56184;51.986;5.760;2022-12-29T00:37:13;11.20;99.90
69082;DHT22;56184;51.986;5.760;2022-12-29T00:39:38;11.20;99.90
69082;DHT22;56184;51.986;5.760;2022-12-29T00:42:22;11.20;99.90
69082;DHT22;56184;51.986;5.760;2022-12-29T00:45:07;11.20;99.90
69082;DHT22;56184;51.986;5.760;2022-12-29T00:47:32;11.30;99.90
69082;DHT22;56184;51.986;5.760;2022-12-29T00:50:09;11.20;99.90
69082;DHT22;56184;51.986;5.760;2022-12-29T00:52:34;11.20;99.90
69082;DHT22;56184;51.986;5.760;2022-12-29T00:55:00;11.20;99.90
69082;DHT22;56184;51.986;5.760;2022-12-29T00:57:25;11.20;99.90
69082;DHT22;56184;51.986;5.760;2022-12-29T00:59:57;11.30;99.90
69082;DHT22;56184;51.986;5.760;2022-12-29T01:02:23;11.30;99.90
69082;DHT22;56184;51.986;5.760;2022-12-29T01:04:55;11.20;99.90
69082;DHT22;56184;51.986;5.760;2022-12-29T01:07:21;11.30;99.90
69082;DHT22;56184;51.986;5.760;2022-12-29T01:09:46;11.30;99.90
69082;DHT22;56184;51.986;5.760;2022-12-29T01:12:33;11.30;99.90
69082;DHT22;56184;51.986;5.760;2022-12-29T01:15:12;11.30;99.90
69082;DHT22;56184;51.986;5.760;2022-12-29T01:17:38;11.30;99.90
69082;DHT22;56184;51.986;5.760;2022-12-29T01:20:04;11.30;99.90
69082;DHT22;56184;51.986;5.760;2022-12-29T01:22:30;11.30;99.90
69082;DHT22;56184;51.986;5.760;2022-12-29T01:24:55;11.30;99.90
69082;DHT22;56184;51.986;5.760;2022-12-29T01:27:21;11.40;99.90
69082;DHT22;56184;51.986;5.760;2022-12-29T01:29:47;11.30;99.90
69082;DHT22;56184;51.986;5.760;2022-12-29T01:32:12;11.30;99.90
69082;DHT22;56184;51.986;5.760;2022-12-29T01:34:38;11.30;99.90
69082;DHT22;56184;51.986;5.760;2022-12-29T01:37:03;11.30;99.90
69082;DHT22;56184;51.986;5.760;2022-12-29T01:39:29;11.30;99.90
69082;DHT22;56184;51.986;5.760;2022-12-29T01:41:54;11.30;99.90
69082;DHT22;56184;51.986;5.760;2022-12-29T01:44:51;11.30;99.90
69082;DHT22;56184;51.986;5.760;2022-12-29T01:47:38;11.40;99.90
69082;DHT22;56184;51.986;5.760;2022-12-29T01:53:09;11.30;99.90
69082;DHT22;56184;51.986;5.760;2022-12-29T01:55:49;11.20;99.90
69082;DHT22;56184;51.986;5.760;2022-12-29T01:58:18;11.20;99.90
69082;DHT22;56184;51.986;5.760;2022-12-29T02:00:45;11.20;99.90
69082;DHT22;56184;51.986;5.760;2022-12-29T02:03:11;11.30;99.90
69082;DHT22;56184;51.986;5.760;2022-12-29T02:05:59;11.30;99.90
69082;DHT22;56184;51.986;5.760;2022-12-29T02:08:29;11.20;99.90
69082;DHT22;56184;51.986;5.760;2022-12-29T02:10:56;11.20;99.90
69082;DHT22;56184;51.986;5.760;2022-12-29T02:13:24;11.20;99.90
69082;DHT22;56184;51.986;5.760;2022-12-29T02:32:32;10.80;99.90
69082;DHT22;56184;51.986;5.760;2022-12-29T02:43:08;10.50;99.90
69082;DHT22;56184;51.986;5.760;2022-12-29T02:50:57;10.50;99.90
69082;DHT22;56184;51.986;5.760;2022-12-29T02:53:25;10.50;99.90
69082;DHT22;56184;51.986;5.760;2022-12-29T02:56:10;10.40;99.90
69082;DHT22;56184;51.986;5.760;2022-12-29T02:58:36;10.50;99.90
69082;DHT22;56184;51.986;5.760;2022-12-29T03:09:31;10.30;99.90
69082;DHT22;56184;51.986;5.760;2022-12-29T03:15:00;10.40;99.90
69082;DHT22;56184;51.986;5.760;2022-12-29T03:17:52;10.30;99.90
69082;DHT22;56184;51.986;5.760;2022-12-29T03:20:38;10.30;99.90
69082;DHT22;56184;51.986;5.760;2022-12-29T03:23:04;10.30;99.90
69082;DHT22;56184;51.986;5.760;2022-12-29T03:25:33;10.30;99.90
69082;DHT22;56184;51.986;5.760;2022-12-29T03:31:00;10.20;99.90
69082;DHT22;56184;51.986;5.760;2022-12-29T03:33:29;10.10;99.90
69082;DHT22;56184;51.986;5.760;2022-12-29T03:36:02;10.10;99.90
69082;DHT22;56184;51.986;5.760;2022-12-29T03:38:35;10.20;99.90
69082;DHT22;56184;51.986;5.760;2022-12-29T03:41:06;10.30;99.90
69082;DHT22;56184;51.986;5.760;2022-12-29T03:43:33;10.20;99.90
69082;DHT22;56184;51.986;5.760;2022-12-29T03:45:59;10.20;99.90
69082;DHT22;56184;51.986;5.760;2022-12-29T03:48:25;10.20;99.90
69082;DHT22;56184;51.986;5.760;2022-12-29T03:50:50;10.20;99.90
69082;DHT22;56184;51.986;5.760;2022-12-29T03:53:19;10.30;99.90
69082;DHT22;56184;51.986;5.760;2022-12-29T03:55:45;10.30;99.90
69082;DHT22;56184;51.986;5.760;2022-12-29T03:58:11;10.20;99.90
69082;DHT22;56184;51.986;5.760;2022-12-29T04:00:37;10.20;99.90
69082;DHT22;56184;51.986;5.760;2022-12-29T04:03:03;10.20;99.90
69082;DHT22;56184;51.986;5.760;2022-12-29T04:05:30;10.30;99.90
69082;DHT22;56184;51.986;5.760;2022-12-29T04:07:57;10.30;99.90
69082;DHT22;56184;51.986;5.760;2022-12-29T04:10:23;10.40;99.90
69082;DHT22;56184;51.986;5.760;2022-12-29T04:13:00;10.40;99.90
69082;DHT22;56184;51.986;5.760;2022-12-29T04:15:43;10.40;99.90
69082;DHT22;56184;51.986;5.760;2022-12-29T04:18:22;10.50;99.90
69082;DHT22;56184;51.986;5.760;2022-12-29T04:20:47;10.50;99.90
69082;DHT22;56184;51.986;5.760;2022-12-29T04:23:34;10.50;99.90
69082;DHT22;56184;51.986;5.760;2022-12-29T04:26:09;10.50;99.90
69082;DHT22;56184;51.986;5.760;2022-12-29T04:28:36;10.60;99.90
69082;DHT22;56184;51.986;5.760;2022-12-29T04:31:14;10.50;99.90
69082;DHT22;56184;51.986;5.760;2022-12-29T04:33:40;10.50;99.90
69082;DHT22;56184;51.986;5.760;2022-12-29T04:36:05;10.60;99.90
69082;DHT22;56184;51.986;5.760;2022-12-29T04:38:40;10.60;99.90
69082;DHT22;56184;51.986;5.760;2022-12-29T04:41:06;10.50;99.90
69082;DHT22;56184;51.986;5.760;2022-12-29T04:43:32;10.50;99.90
69082;DHT22;56184;51.986;5.760;2022-12-29T04:45:58;10.50;99.90
69082;DHT22;56184;51.986;5.760;2022-12-29T04:48:23;10.60;99.90
69082;DHT22;56184;51.986;5.760;2022-12-29T04:51:01;10.50;99.90
69082;DHT22;56184;51.986;5.760;2022-12-29T04:53:27;10.60;99.90
69082;DHT22;56184;51.986;5.760;2022-12-29T04:55:55;10.50;99.90
69082;DHT22;56184;51.986;5.760;2022-12-29T04:58:20;10.50;99.90
69082;DHT22;56184;51.986;5.760;2022-12-29T05:00:46;10.50;99.90
69082;DHT22;56184;51.986;5.760;2022-12-29T05:03:12;10.50;99.90
69082;DHT22;56184;51.986;5.760;2022-12-29T05:05:37;10.50;99.80
69082;DHT22;56184;51.986;5.760;2022-12-29T05:08:03;10.40;99.90
69082;DHT22;56184;51.986;5.760;2022-12-29T05:10:29;10.40;99.90
69082;DHT22;56184;51.986;5.760;2022-12-29T05:12:55;10.40;99.40
69082;DHT22;56184;51.986;5.760;2022-12-29T05:15:21;10.40;99.90
69082;DHT22;56184;51.986;5.760;2022-12-29T05:17:47;10.40;99.90
69082;DHT22;56184;51.986;5.760;2022-12-29T05:20:12;10.30;99.70
69082;DHT22;56184;51.986;5.760;2022-12-29T05:22:44;10.40;99.30
69082;DHT22;56184;51.986;5.760;2022-12-29T05:25:11;10.30;99.90
69082;DHT22;56184;51.986;5.760;2022-12-29T05:27:37;10.30;99.50
69082;DHT22;56184;51.986;5.760;2022-12-29T05:30:03;10.30;99.80
69082;DHT22;56184;51.986;5.760;2022-12-29T05:32:29;10.30;99.70
69082;DHT22;56184;51.986;5.760;2022-12-29T05:34:54;10.20;99.20
69082;DHT22;56184;51.986;5.760;2022-12-29T05:37:20;10.10;99.40
69082;DHT22;56184;51.986;5.760;2022-12-29T05:39:45;10.20;99.90
69082;DHT22;56184;51.986;5.760;2022-12-29T05:42:11;10.20;99.90
69082;DHT22;56184;51.986;5.760;2022-12-29T05:44:36;10.10;99.60
69082;DHT22;56184;51.986;5.760;2022-12-29T05:47:02;10.10;99.90
69082;DHT22;56184;51.986;5.760;2022-12-29T05:49:28;10.10;99.90
69082;DHT22;56184;51.986;5.760;2022-12-29T05:51:53;10.10;99.90
69082;DHT22;56184;51.986;5.760;2022-12-29T05:54:19;10.10;99.90
69082;DHT22;56184;51.986;5.760;2022-12-29T05:56:44;10.00;99.90
69082;DHT22;56184;51.986;5.760;2022-12-29T05:59:10;10.00;99.90
69082;DHT22;56184;51.986;5.760;2022-12-29T06:01:36;10.00;99.90
69082;DHT22;56184;51.986;5.760;2022-12-29T06:04:04;10.00;99.90
69082;DHT22;56184;51.986;5.760;2022-12-29T06:06:30;10.00;99.90
69082;DHT22;56184;51.986;5.760;2022-12-29T06:08:55;10.00;99.90
69082;DHT22;56184;51.986;5.760;2022-12-29T06:11:21;10.00;99.90
69082;DHT22;56184;51.986;5.760;2022-12-29T06:13:46;10.00;99.90
69082;DHT22;56184;51.986;5.760;2022-12-29T06:16:12;10.00;99.90
69082;DHT22;56184;51.986;5.760;2022-12-29T06:18:38;10.00;99.90
69082;DHT22;56184;51.986;5.760;2022-12-29T06:21:05;10.00;99.90
69082;DHT22;56184;51.986;5.760;2022-12-29T06:23:30;10.00;99.90
69082;DHT22;56184;51.986;5.760;2022-12-29T06:25:56;10.00;99.90
69082;DHT22;56184;51.986;5.760;2022-12-29T06:28:22;10.00;99.90
69082;DHT22;56184;51.986;5.760;2022-12-29T06:30:48;10.00;99.80
69082;DHT22;56184;51.986;5.760;2022-12-29T06:33:14;10.10;99.50
69082;DHT22;56184;51.986;5.760;2022-12-29T06:35:42;10.10;99.30
69082;DHT22;56184;51.986;5.760;2022-12-29T06:38:07;10.10;99.40
69082;DHT22;56184;51.986;5.760;2022-12-29T06:40:33;10.10;99.20
69082;DHT22;56184;51.986;5.760;2022-12-29T06:42:58;10.10;98.70
69082;DHT22;56184;51.986;5.760;2022-12-29T06:45:24;10.10;99.70
69082;DHT22;56184;51.986;5.760;2022-12-29T06:47:49;10.10;99.50
69082;DHT22;56184;51.986;5.760;2022-12-29T06:50:15;10.10;98.60
69082;DHT22;56184;51.986;5.760;2022-12-29T06:52:41;10.00;99.80
69082;DHT22;56184;51.986;5.760;2022-12-29T06:55:07;10.10;99.10
69082;DHT22;56184;51.986;5.760;2022-12-29T06:57:32;10.00;99.20
69082;DHT22;56184;51.986;5.760;2022-12-29T06:59:58;10.10;99.30
69082;DHT22;56184;51.986;5.760;2022-12-29T07:02:24;10.00;98.70
69082;DHT22;56184;51.986;5.760;2022-12-29T07:04:53;10.10;98.90
69082;DHT22;56184;51.986;5.760;2022-12-29T07:07:45;10.00;99.00
69082;DHT22;56184;51.986;5.760;2022-12-29T07:10:27;10.00;98.00
69082;DHT22;56184;51.986;5.760;2022-12-29T07:12:52;10.00;97.90
69082;DHT22;56184;51.986;5.760;2022-12-29T07:15:26;10.00;97.80
69082;DHT22;56184;51.986;5.760;2022-12-29T07:17:51;10.10;98.60
69082;DHT22;56184;51.986;5.760;2022-12-29T07:20:32;10.10;98.40
69082;DHT22;56184;51.986;5.760;2022-12-29T07:22:58;10.10;98.30
69082;DHT22;56184;51.986;5.760;2022-12-29T07:25:30;10.00;99.40
69082;DHT22;56184;51.986;5.760;2022-12-29T07:27:55;10.00;97.80
69082;DHT22;56184;51.986;5.760;2022-12-29T07:30:21;10.00;97.80
69082;DHT22;56184;51.986;5.760;2022-12-29T07:32:57;10.10;98.30
69082;DHT22;56184;51.986;5.760;2022-12-29T07:35:23;10.10;98.40
69082;DHT22;56184;51.986;5.760;2022-12-29T07:37:58;10.20;98.10
69082;DHT22;56184;51.986;5.760;2022-12-29T07:40:24;10.10;97.30
69082;DHT22;56184;51.986;5.760;2022-12-29T07:42:50;10.10;97.30
69082;DHT22;56184;51.986;5.760;2022-12-29T07:45:24;10.10;98.30
69082;DHT22;56184;51.986;5.760;2022-12-29T07:47:50;10.00;98.60
69082;DHT22;56184;51.986;5.760;2022-12-29T07:50:16;10.10;98.80
69082;DHT22;56184;51.986;5.760;2022-12-29T07:52:56;10.00;98.90
69082;DHT22;56184;51.986;5.760;2022-12-29T07:55:22;10.00;98.80
69082;DHT22;56184;51.986;5.760;2022-12-29T07:57:47;10.00;98.70
69082;DHT22;56184;51.986;5.760;2022-12-29T08:00:31;10.00;98.80
69082;DHT22;56184;51.986;5.760;2022-12-29T08:03:06;10.10;97.00
69082;DHT22;56184;51.986;5.760;2022-12-29T08:05:32;10.00;98.10
69082;DHT22;56184;51.986;5.760;2022-12-29T08:08:01;10.10;97.40
69082;DHT22;56184;51.986;5.760;2022-12-29T08:10:27;10.10;97.40
69082;DHT22;56184;51.986;5.760;2022-12-29T08:12:52;10.00;98.10
69082;DHT22;56184;51.986;5.760;2022-12-29T08:15:24;10.00;98.30
69082;DHT22;56184;51.986;5.760;2022-12-29T08:18:06;9.90;97.30
69082;DHT22;56184;51.986;5.760;2022-12-29T08:20:44;10.00;97.40
69082;DHT22;56184;51.986;5.760;2022-12-29T08:23:10;10.00;97.10
69082;DHT22;56184;51.986;5.760;2022-12-29T08:25:35;10.00;97.90
69082;DHT22;56184;51.986;5.760;2022-12-29T08:28:07;10.00;97.40
69082;DHT22;56184;51.986;5.760;2022-12-29T08:30:59;10.10;98.10
69082;DHT22;56184;51.986;5.760;2022-12-29T08:33:38;10.10;97.30
69082;DHT22;56184;51.986;5.760;2022-12-29T08:36:05;10.10;96.90
69082;DHT22;56184;51.986;5.760;2022-12-29T08:38:40;10.10;95.90
69082;DHT22;56184;51.986;5.760;2022-12-29T08:41:06;10.10;96.40
69082;DHT22;56184;51.986;5.760;2022-12-29T08:43:34;10.10;96.70
69082;DHT22;56184;51.986;5.760;2022-12-29T08:46:00;10.10;97.00
69082;DHT22;56184;51.986;5.760;2022-12-29T08:48:26;10.20;96.90
69082;DHT22;56184;51.986;5.760;2022-12-29T08:51:01;10.10;95.50
69082;DHT22;56184;51.986;5.760;2022-12-29T08:53:26;10.20;97.10
69082;DHT22;56184;51.986;5.760;2022-12-29T08:56:04;10.30;96.40
69082;DHT22;56184;51.986;5.760;2022-12-29T08:58:30;10.30;96.60
69082;DHT22;56184;51.986;5.760;2022-12-29T09:01:07;10.30;96.20
69082;DHT22;56184;51.986;5.760;2022-12-29T09:03:33;10.30;95.80
69082;DHT22;56184;51.986;5.760;2022-12-29T09:05:59;10.20;96.80
69082;DHT22;56184;51.986;5.760;2022-12-29T09:08:25;10.30;96.10
69082;DHT22;56184;51.986;5.760;2022-12-29T09:10:50;10.30;96.70
69082;DHT22;56184;51.986;5.760;2022-12-29T09:13:30;10.30;96.60
69082;DHT22;56184;51.986;5.760;2022-12-29T09:15:59;10.30;97.20
69082;DHT22;56184;51.986;5.760;2022-12-29T09:18:31;10.30;97.20
69082;DHT22;56184;51.986;5.760;2022-12-29T09:20:58;10.20;97.70
69082;DHT22;56184;51.986;5.760;2022-12-29T09:23:29;10.20;98.00
69082;DHT22;56184;51.986;5.760;2022-12-29T09:25:55;10.30;97.00
69082;DHT22;56184;51.986;5.760;2022-12-29T09:28:21;10.30;96.70
69082;DHT22;56184;51.986;5.760;2022-12-29T09:30:57;10.30;97.10
69082;DHT22;56184;51.986;5.760;2022-12-29T09:33:32;10.40;96.40
69082;DHT22;56184;51.986;5.760;2022-12-29T09:36:01;10.30;97.20
69082;DHT22;56184;51.986;5.760;2022-12-29T09:38:27;10.40;95.90
69082;DHT22;56184;51.986;5.760;2022-12-29T09:40:56;10.40;96.70
69082;DHT22;56184;51.986;5.760;2022-12-29T09:46:27;10.20;97.50
69082;DHT22;56184;51.986;5.760;2022-12-29T09:49:07;10.10;98.10
69082;DHT22;56184;51.986;5.760;2022-12-29T09:51:37;10.10;98.10
69082;DHT22;56184;51.986;5.760;2022-12-29T09:54:33;9.90;99.10
69082;DHT22;56184;51.986;5.760;2022-12-29T09:57:02;10.00;99.00
69082;DHT22;56184;51.986;5.760;2022-12-29T09:59:40;9.80;98.90
69082;DHT22;56184;51.986;5.760;2022-12-29T10:02:59;9.80;99.20
69082;DHT22;56184;51.986;5.760;2022-12-29T10:05:19;9.80;99.50
69082;DHT22;56184;51.986;5.760;2022-12-29T10:07:51;9.70;99.90
69082;DHT22;56184;51.986;5.760;2022-12-29T10:13:13;9.70;99.90
69082;DHT22;56184;51.986;5.760;2022-12-29T10:15:55;9.60;99.90
69082;DHT22;56184;51.986;5.760;2022-12-29T10:23:57;9.60;99.90
69082;DHT22;56184;51.986;5.760;2022-12-29T10:26:27;9.60;99.90
69082;DHT22;56184;51.986;5.760;2022-12-29T10:31:25;9.60;99.90
69082;DHT22;56184;51.986;5.760;2022-12-29T10:34:01;9.60;99.90
69082;DHT22;56184;51.986;5.760;2022-12-29T10:36:44;9.50;99.90
69082;DHT22;56184;51.986;5.760;2022-12-29T10:39:19;9.60;99.90
69082;DHT22;56184;51.986;5.760;2022-12-29T10:44:24;9.40;99.90
69082;DHT22;56184;51.986;5.760;2022-12-29T10:47:02;9.40;99.90
69082;DHT22;56184;51.986;5.760;2022-12-29T10:49:30;9.40;99.90
69082;DHT22;56184;51.986;5.760;2022-12-29T10:51:58;9.40;99.90
69082;DHT22;56184;51.986;5.760;2022-12-29T10:54:54;9.40;99.90
69082;DHT22;56184;51.986;5.760;2022-12-29T10:57:31;9.40;99.90
69082;DHT22;56184;51.986;5.760;2022-12-29T10:59:58;9.40;99.90
69082;DHT22;56184;51.986;5.760;2022-12-29T11:02:49;9.50;99.90
69082;DHT22;56184;51.986;5.760;2022-12-29T11:08:09;9.40;99.90
69082;DHT22;56184;51.986;5.760;2022-12-29T11:10:38;9.40;99.90
69082;DHT22;56184;51.986;5.760;2022-12-29T11:13:13;9.30;99.90
69082;DHT22;56184;51.986;5.760;2022-12-29T11:15:49;9.40;99.90
69082;DHT22;56184;51.986;5.760;2022-12-29T11:18:33;9.40;99.90
69082;DHT22;56184;51.986;5.760;2022-12-29T11:21:02;9.50;99.90
69082;DHT22;56184;51.986;5.760;2022-12-29T11:23:36;9.60;99.90
69082;DHT22;56184;51.986;5.760;2022-12-29T11:26:20;9.50;99.90
69082;DHT22;56184;51.986;5.760;2022-12-29T11:29:03;9.50;99.90
69082;DHT22;56184;51.986;5.760;2022-12-29T11:31:29;9.60;99.90
69082;DHT22;56184;51.986;5.760;2022-12-29T11:33:55;9.40;99.90
69082;DHT22;56184;51.986;5.760;2022-12-29T11:36:22;9.40;99.90
69082;DHT22;56184;51.986;5.760;2022-12-29T11:38:51;9.40;99.90
69082;DHT22;56184;51.986;5.760;2022-12-29T11:41:23;9.40;99.90
69082;DHT22;56184;51.986;5.760;2022-12-29T11:43:51;9.40;99.90
69082;DHT22;56184;51.986;5.760;2022-12-29T11:46:27;9.40;99.90
69082;DHT22;56184;51.986;5.760;2022-12-29T11:48:53;9.40;99.90
69082;DHT22;56184;51.986;5.760;2022-12-29T11:51:45;9.40;99.90
69082;DHT22;56184;51.986;5.760;2022-12-29T11:54:33;9.40;99.90
69082;DHT22;56184;51.986;5.760;2022-12-29T11:57:12;9.50;99.90
69082;DHT22;56184;51.986;5.760;2022-12-29T11:59:54;9.50;99.90
69082;DHT22;56184;51.986;5.760;2022-12-29T12:02:42;9.60;99.90
69082;DHT22;56184;51.986;5.760;2022-12-29T12:10:56;9.60;99.90
69082;DHT22;56184;51.986;5.760;2022-12-29T12:13:31;9.60;99.90
69082;DHT22;56184;51.986;5.760;2022-12-29T12:16:04;9.60;99.90
69082;DHT22;56184;51.986;5.760;2022-12-29T12:18:37;9.70;99.90
69082;DHT22;56184;51.986;5.760;2022-12-29T12:26:32;9.90;99.90
69082;DHT22;56184;51.986;5.760;2022-12-29T12:29:20;9.80;99.90
69082;DHT22;56184;51.986;5.760;2022-12-29T12:31:49;9.90;99.90
69082;DHT22;56184;51.986;5.760;2022-12-29T12:34:30;10.10;99.90
69082;DHT22;56184;51.986;5.760;2022-12-29T12:42:53;10.30;99.30
69082;DHT22;56184;51.986;5.760;2022-12-29T12:45:59;10.40;98.80
69082;DHT22;56184;51.986;5.760;2022-12-29T13:00:19;10.50;97.90
69082;DHT22;56184;51.986;5.760;2022-12-29T13:05:24;10.50;98.40
69082;DHT22;56184;51.986;5.760;2022-12-29T13:10:34;10.50;97.90
69082;DHT22;56184;51.986;5.760;2022-12-29T13:18:59;10.50;97.00
69082;DHT22;56184;51.986;5.760;2022-12-29T13:24:35;10.40;98.50
69082;DHT22;56184;51.986;5.760;2022-12-29T13:30:04;10.50;97.30
69082;DHT22;56184;51.986;5.760;2022-12-29T13:33:07;10.50;97.00
69082;DHT22;56184;51.986;5.760;2022-12-29T13:41:37;10.40;98.00
69082;DHT22;56184;51.986;5.760;2022-12-29T13:44:05;10.40;97.30
69082;DHT22;56184;51.986;5.760;2022-12-29T13:46:41;10.40;97.70
69082;DHT22;56184;51.986;5.760;2022-12-29T13:49:17;10.30;97.80
69082;DHT22;56184;51.986;5.760;2022-12-29T13:51:59;10.30;98.50
69082;DHT22;56184;51.986;5.760;2022-12-29T13:54:33;10.30;97.80
69082;DHT22;56184;51.986;5.760;2022-12-29T14:00:11;10.30;97.30
69082;DHT22;56184;51.986;5.760;2022-12-29T14:02:46;10.20;97.70
69082;DHT22;56184;51.986;5.760;2022-12-29T14:07:46;10.30;96.60
69082;DHT22;56184;51.986;5.760;2022-12-29T14:10:28;10.20;97.90
69082;DHT22;56184;51.986;5.760;2022-12-29T14:13:16;10.20;98.00
69082;DHT22;56184;51.986;5.760;2022-12-29T14:15:46;10.10;98.10
69082;DHT22;56184;51.986;5.760;2022-12-29T14:18:23;10.20;97.50
69082;DHT22;56184;51.986;5.760;2022-12-29T14:21:19;10.20;97.60
69082;DHT22;56184;51.986;5.760;2022-12-29T14:23:49;10.20;97.20
69082;DHT22;56184;51.986;5.760;2022-12-29T14:26:17;10.10;98.00
69082;DHT22;56184;51.986;5.760;2022-12-29T14:28:48;10.10;96.70
69082;DHT22;56184;51.986;5.760;2022-12-29T14:33:41;10.00;97.40
69082;DHT22;56184;51.986;5.760;2022-12-29T14:36:20;9.90;97.10
69082;DHT22;56184;51.986;5.760;2022-12-29T14:38:46;10.00;97.90
69082;DHT22;56184;51.986;5.760;2022-12-29T14:41:38;9.70;99.70
69082;DHT22;56184;51.986;5.760;2022-12-29T14:44:16;9.50;99.90
69082;DHT22;56184;51.986;5.760;2022-12-29T14:46:57;9.40;99.90
69082;DHT22;56184;51.986;5.760;2022-12-29T14:49:27;9.40;99.90
69082;DHT22;56184;51.986;5.760;2022-12-29T14:52:04;9.30;99.90
69082;DHT22;56184;51.986;5.760;2022-12-29T14:54:34;9.20;99.90
69082;DHT22;56184;51.986;5.760;2022-12-29T14:57:09;9.10;99.90
69082;DHT22;56184;51.986;5.760;2022-12-29T14:59:39;9.10;99.90
69082;DHT22;56184;51.986;5.760;2022-12-29T15:02:17;9.10;99.90
69082;DHT22;56184;51.986;5.760;2022-12-29T15:04:44;9.10;99.90
69082;DHT22;56184;51.986;5.760;2022-12-29T15:07:12;9.20;99.90
69082;DHT22;56184;51.986;5.760;2022-12-29T15:09:47;9.20;99.90
69082;DHT22;56184;51.986;5.760;2022-12-29T15:14:53;9.10;99.90
69082;DHT22;56184;51.986;5.760;2022-12-29T15:17:45;9.20;99.90
69082;DHT22;56184;51.986;5.760;2022-12-29T15:20:29;9.20;99.90
69082;DHT22;56184;51.986;5.760;2022-12-29T15:23:08;9.20;99.90
69082;DHT22;56184;51.986;5.760;2022-12-29T15:25:35;9.20;99.90
69082;DHT22;56184;51.986;5.760;2022-12-29T15:28:04;9.20;99.90
69082;DHT22;56184;51.986;5.760;2022-12-29T15:30:30;9.10;99.90
69082;DHT22;56184;51.986;5.760;2022-12-29T15:32:56;9.10;99.90
69082;DHT22;56184;51.986;5.760;2022-12-29T15:35:23;9.20;99.90
69082;DHT22;56184;51.986;5.760;2022-12-29T15:37:49;9.20;99.90
69082;DHT22;56184;51.986;5.760;2022-12-29T15:40:27;9.20;99.90
69082;DHT22;56184;51.986;5.760;2022-12-29T15:45:42;9.20;99.90
69082;DHT22;56184;51.986;5.760;2022-12-29T15:48:17;9.30;99.90
69082;DHT22;56184;51.986;5.760;2022-12-29T15:50:44;9.30;99.90
69082;DHT22;56184;51.986;5.760;2022-12-29T15:53:11;9.30;99.70
69082;DHT22;56184;51.986;5.760;2022-12-29T15:55:39;9.30;99.90
69082;DHT22;56184;51.986;5.760;2022-12-29T15:58:27;9.30;99.90
69082;DHT22;56184;51.986;5.760;2022-12-29T16:00:59;9.30;99.90
69082;DHT22;56184;51.986;5.760;2022-12-29T16:03:28;9.30;99.90
69082;DHT22;56184;51.986;5.760;2022-12-29T16:06:06;9.40;99.60
69082;DHT22;56184;51.986;5.760;2022-12-29T16:08:39;9.40;99.90
69082;DHT22;56184;51.986;5.760;2022-12-29T16:13:58;9.40;99.60
69082;DHT22;56184;51.986;5.760;2022-12-29T16:16:39;9.50;99.10
69082;DHT22;56184;51.986;5.760;2022-12-29T16:19:17;9.40;99.30
69082;DHT22;56184;51.986;5.760;2022-12-29T16:21:46;9.30;99.50
69082;DHT22;56184;51.986;5.760;2022-12-29T16:24:26;9.30;99.00
69082;DHT22;56184;51.986;5.760;2022-12-29T16:27:10;9.30;99.10
69082;DHT22;56184;51.986;5.760;2022-12-29T16:29:42;9.30;99.10
69082;DHT22;56184;51.986;5.760;2022-12-29T16:32:30;9.20;99.50
69082;DHT22;56184;51.986;5.760;2022-12-29T16:35:26;9.20;99.80
69082;DHT22;56184;51.986;5.760;2022-12-29T16:43:27;9.10;97.90
69082;DHT22;56184;51.986;5.760;2022-12-29T16:48:27;9.10;98.50
69082;DHT22;56184;51.986;5.760;2022-12-29T16:51:05;9.10;97.90
69082;DHT22;56184;51.986;5.760;2022-12-29T16:53:35;9.00;98.50
69082;DHT22;56184;51.986;5.760;2022-12-29T16:56:17;9.00;98.20
69082;DHT22;56184;51.986;5.760;2022-12-29T16:59:08;9.00;98.20
69082;DHT22;56184;51.986;5.760;2022-12-29T17:01:40;9.00;98.10
69082;DHT22;56184;51.986;5.760;2022-12-29T17:04:11;9.00;97.80
69082;DHT22;56184;51.986;5.760;2022-12-29T17:06:37;9.00;98.10
69082;DHT22;56184;51.986;5.760;2022-12-29T17:09:16;8.90;96.80
69082;DHT22;56184;51.986;5.760;2022-12-29T17:11:43;8.90;97.90
69082;DHT22;56184;51.986;5.760;2022-12-29T17:14:36;8.90;97.60
69082;DHT22;56184;51.986;5.760;2022-12-29T17:17:05;8.90;97.20
69082;DHT22;56184;51.986;5.760;2022-12-29T17:19:36;8.80;97.30
69082;DHT22;56184;51.986;5.760;2022-12-29T17:22:08;8.90;96.70
69082;DHT22;56184;51.986;5.760;2022-12-29T17:24:34;8.90;97.00
69082;DHT22;56184;51.986;5.760;2022-12-29T17:27:01;8.80;96.60
69082;DHT22;56184;51.986;5.760;2022-12-29T17:29:36;8.80;96.90
69082;DHT22;56184;51.986;5.760;2022-12-29T17:32:04;8.80;96.60
69082;DHT22;56184;51.986;5.760;2022-12-29T17:34:31;8.80;96.60
69082;DHT22;56184;51.986;5.760;2022-12-29T17:36:57;8.70;97.50
69082;DHT22;56184;51.986;5.760;2022-12-29T17:39:23;8.70;97.10
69082;DHT22;56184;51.986;5.760;2022-12-29T17:41:49;8.70;96.10
69082;DHT22;56184;51.986;5.760;2022-12-29T17:44:19;8.70;97.00
69082;DHT22;56184;51.986;5.760;2022-12-29T17:46:46;8.60;96.40
69082;DHT22;56184;51.986;5.760;2022-12-29T17:49:16;8.70;96.40
69082;DHT22;56184;51.986;5.760;2022-12-29T17:51:42;8.70;96.30
69082;DHT22;56184;51.986;5.760;2022-12-29T17:54:23;8.60;97.10
69082;DHT22;56184;51.986;5.760;2022-12-29T17:56:49;8.80;96.50
69082;DHT22;56184;51.986;5.760;2022-12-29T17:59:16;8.70;97.00
69082;DHT22;56184;51.986;5.760;2022-12-29T18:01:43;8.60;96.40
69082;DHT22;56184;51.986;5.760;2022-12-29T18:04:18;8.60;96.60
69082;DHT22;56184;51.986;5.760;2022-12-29T18:06:44;8.60;96.00
69082;DHT22;56184;51.986;5.760;2022-12-29T18:09:11;8.60;96.10
69082;DHT22;56184;51.986;5.760;2022-12-29T18:11:43;8.50;96.80
69082;DHT22;56184;51.986;5.760;2022-12-29T18:14:13;8.50;96.30
69082;DHT22;56184;51.986;5.760;2022-12-29T18:16:39;8.50;96.50
69082;DHT22;56184;51.986;5.760;2022-12-29T18:19:05;8.50;96.70
69082;DHT22;56184;51.986;5.760;2022-12-29T18:21:30;8.50;97.20
69082;DHT22;56184;51.986;5.760;2022-12-29T18:23:56;8.70;95.60
69082;DHT22;56184;51.986;5.760;2022-12-29T18:26:24;8.60;96.10
69082;DHT22;56184;51.986;5.760;2022-12-29T18:28:52;8.50;96.20